sensor_id;sensor_type;location;lat;lon;timestamp;temperature;humidity
11126;DHT22;5617;54.046;10.676;2023-05-16T00:01:19;10.90;99.90
11126;DHT22;5617;54.046;10.676;2023-05-16T00:03:27;10.90;99.90
11126;DHT22;5617;54.046;10.676;2023-05-16T00:05:36;10.90;99.90
11126;DHT22;5617;54.046;10.676;2023-05-16T00:07:45;10.90;99.90
11126;DHT22;5617;54.046;10.676;2023-05-16T00:09:56;10.90;99.90
11126;DHT22;5617;54.046;10.676;2023-05-16T00:12:06;10.90;99.90
11126;DHT22;5617;54.046;10.676;2023-05-16T00:14:14;10.90;99.90
11126;DHT22;5617;54.046;10.676;2023-05-16T00:16:22;10.90;99.90
11126;DHT22;5617;54.046;10.676;2023-05-16T00:18:31;10.80;99.90
11126;DHT22;5617;54.046;10.676;2023-05-16T00:20:42;10.80;99.90
11126;DHT22;5617;54.046;10.676;2023-05-16T00:22:50;10.80;99.90
11126;DHT22;5617;54.046;10.676;2023-05-16T00:24:58;10.70;99.90
11126;DHT22;5617;54.046;10.676;2023-05-16T00:27:07;10.70;99.90
11126;DHT22;5617;54.046;10.676;2023-05-16T00:29:15;10.70;99.90
11126;DHT22;5617;54.046;10.676;2023-05-16T00:31:22;10.70;99.90
11126;DHT22;5617;54.046;10.676;2023-05-16T00:33:30;10.60;99.90
11126;DHT22;5617;54.046;10.676;2023-05-16T00:35:38;10.60;99.90
11126;DHT22;5617;54.046;10.676;2023-05-16T00:37:45;10.60;99.90
11126;DHT22;5617;54.046;10.676;2023-05-16T00:39:53;10.60;99.90
11126;DHT22;5617;54.046;10.676;2023-05-16T00:42:00;10.60;99.90
11126;DHT22;5617;54.046;10.676;2023-05-16T00:44:10;10.60;99.90
11126;DHT22;5617;54.046;10.676;2023-05-16T00:46:18;10.70;99.90
11126;DHT22;5617;54.046;10.676;2023-05-16T00:48:26;10.70;99.90
11126;DHT22;5617;54.046;10.676;2023-05-16T00:50:35;10.70;99.90
11126;DHT22;5617;54.046;10.676;2023-05-16T00:52:43;10.70;99.90
11126;DHT22;5617;54.046;10.676;2023-05-16T00:54:50;10.70;99.90
11126;DHT22;5617;54.046;10.676;2023-05-16T00:56:58;10.70;99.90
11126;DHT22;5617;54.046;10.676;2023-05-16T00:59:06;10.70;99.90
11126;DHT22;5617;54.046;10.676;2023-05-16T01:01:15;10.70;99.90
11126;DHT22;5617;54.046;10.676;2023-05-16T01:03:24;10.80;99.90
11126;DHT22;5617;54.046;10.676;2023-05-16T01:05:33;10.80;99.90
11126;DHT22;5617;54.046;10.676;2023-05-16T01:07:41;10.80;99.90
11126;DHT22;5617;54.046;10.676;2023-05-16T01:09:48;10.80;99.90
11126;DHT22;5617;54.046;10.676;2023-05-16T01:12:08;10.80;99.90
11126;DHT22;5617;54.046;10.676;2023-05-16T01:14:24;10.80;99.90
11126;DHT22;5617;54.046;10.676;2023-05-16T01:16:41;10.90;99.90
11126;DHT22;5617;54.046;10.676;2023-05-16T01:18:58;10.90;99.90
11126;DHT22;5617;54.046;10.676;2023-05-16T01:21:16;10.80;99.90
11126;DHT22;5617;54.046;10.676;2023-05-16T01:23:40;10.80;99.90
11126;DHT22;5617;54.046;10.676;2023-05-16T01:25:57;10.80;99.90
11126;DHT22;5617;54.046;10.676;2023-05-16T01:28:12;10.80;99.90
11126;DHT22;5617;54.046;10.676;2023-05-16T01:30:20;10.90;99.90
11126;DHT22;5617;54.046;10.676;2023-05-16T01:32:27;10.90;99.90
11126;DHT22;5617;54.046;10.676;2023-05-16T01:34:35;10.90;99.90
11126;DHT22;5617;54.046;10.676;2023-05-16T01:36:49;10.90;99.90
11126;DHT22;5617;54.046;10.676;2023-05-16T01:39:06;10.90;99.90
11126;DHT22;5617;54.046;10.676;2023-05-16T01:41:20;10.90;99.90
11126;DHT22;5617;54.046;10.676;2023-05-16T01:43:33;10.90;99.90
11126;DHT22;5617;54.046;10.676;2023-05-16T01:45:45;10.80;99.90
11126;DHT22;5617;54.046;10.676;2023-05-16T01:47:57;10.80;99.90
11126;DHT22;5617;54.046;10.676;2023-05-16T01:50:09;10.80;99.90
11126;DHT22;5617;54.046;10.676;2023-05-16T01:52:22;10.70;99.90
11126;DHT22;5617;54.046;10.676;2023-05-16T01:54:31;10.80;99.90
11126;DHT22;5617;54.046;10.676;2023-05-16T01:59:58;10.80;99.90
11126;DHT22;5617;54.046;10.676;2023-05-16T02:02:06;10.80;99.90
11126;DHT22;5617;54.046;10.676;2023-05-16T02:04:14;10.90;99.90
11126;DHT22;5617;54.046;10.676;2023-05-16T02:06:23;10.90;99.90
11126;DHT22;5617;54.046;10.676;2023-05-16T02:08:31;10.90;99.90
11126;DHT22;5617;54.046;10.676;2023-05-16T02:10:39;10.90;99.90
11126;DHT22;5617;54.046;10.676;2023-05-16T02:12:46;10.90;99.90
11126;DHT22;5617;54.046;10.676;2023-05-16T02:14:54;10.90;99.90
11126;DHT22;5617;54.046;10.676;2023-05-16T02:17:03;10.90;99.90
11126;DHT22;5617;54.046;10.676;2023-05-16T02:19:10;10.90;99.90
11126;DHT22;5617;54.046;10.676;2023-05-16T02:21:18;10.90;99.90
11126;DHT22;5617;54.046;10.676;2023-05-16T02:23:26;10.90;99.90
11126;DHT22;5617;54.046;10.676;2023-05-16T02:25:33;10.90;99.90
11126;DHT22;5617;54.046;10.676;2023-05-16T02:27:41;10.90;99.90
11126;DHT22;5617;54.046;10.676;2023-05-16T02:29:49;10.90;99.90
11126;DHT22;5617;54.046;10.676;2023-05-16T02:31:56;10.90;99.90
11126;DHT22;5617;54.046;10.676;2023-05-16T02:34:05;10.90;99.90
11126;DHT22;5617;54.046;10.676;2023-05-16T02:36:13;10.90;99.90
11126;DHT22;5617;54.046;10.676;2023-05-16T02:38:21;10.90;99.90
11126;DHT22;5617;54.046;10.676;2023-05-16T02:40:29;11.00;99.90
11126;DHT22;5617;54.046;10.676;2023-05-16T02:42:36;10.90;99.90
11126;DHT22;5617;54.046;10.676;2023-05-16T02:44:44;11.00;99.90
11126;DHT22;5617;54.046;10.676;2023-05-16T02:46:52;11.00;99.90
11126;DHT22;5617;54.046;10.676;2023-05-16T02:48:59;11.00;99.90
11126;DHT22;5617;54.046;10.676;2023-05-16T02:51:10;11.00;99.90
11126;DHT22;5617;54.046;10.676;2023-05-16T02:53:17;11.00;99.90
11126;DHT22;5617;54.046;10.676;2023-05-16T02:55:25;11.00;99.90
11126;DHT22;5617;54.046;10.676;2023-05-16T02:57:32;11.00;99.90
11126;DHT22;5617;54.046;10.676;2023-05-16T02:59:40;11.00;99.90
11126;DHT22;5617;54.046;10.676;2023-05-16T03:01:48;11.00;99.90
11126;DHT22;5617;54.046;10.676;2023-05-16T03:03:55;11.00;99.90
11126;DHT22;5617;54.046;10.676;2023-05-16T03:06:03;11.00;99.90
11126;DHT22;5617;54.046;10.676;2023-05-16T03:08:12;11.00;99.90
11126;DHT22;5617;54.046;10.676;2023-05-16T03:10:20;11.00;99.90
11126;DHT22;5617;54.046;10.676;2023-05-16T03:12:28;11.00;99.90
11126;DHT22;5617;54.046;10.676;2023-05-16T03:14:36;11.00;99.90
11126;DHT22;5617;54.046;10.676;2023-05-16T03:16:44;11.00;99.90
11126;DHT22;5617;54.046;10.676;2023-05-16T03:18:51;11.00;99.90
11126;DHT22;5617;54.046;10.676;2023-05-16T03:20:59;11.00;99.90
11126;DHT22;5617;54.046;10.676;2023-05-16T03:23:08;11.00;99.90
11126;DHT22;5617;54.046;10.676;2023-05-16T03:25:17;11.00;99.90
11126;DHT22;5617;54.046;10.676;2023-05-16T03:27:26;11.00;99.90
11126;DHT22;5617;54.046;10.676;2023-05-16T03:29:33;11.00;99.90
11126;DHT22;5617;54.046;10.676;2023-05-16T03:31:41;11.00;99.90
11126;DHT22;5617;54.046;10.676;2023-05-16T03:33:49;11.00;99.90
11126;DHT22;5617;54.046;10.676;2023-05-16T03:35:56;11.00;99.90
11126;DHT22;5617;54.046;10.676;2023-05-16T03:38:04;11.00;99.90
11126;DHT22;5617;54.046;10.676;2023-05-16T03:40:12;11.10;99.90
11126;DHT22;5617;54.046;10.676;2023-05-16T03:42:21;11.10;99.90
11126;DHT22;5617;54.046;10.676;2023-05-16T03:44:29;11.10;99.90
11126;DHT22;5617;54.046;10.676;2023-05-16T03:46:36;11.10;99.90
11126;DHT22;5617;54.046;10.676;2023-05-16T03:48:44;11.10;99.90
11126;DHT22;5617;54.046;10.676;2023-05-16T03:50:52;11.10;99.90
11126;DHT22;5617;54.046;10.676;2023-05-16T03:52:59;11.10;99.90
11126;DHT22;5617;54.046;10.676;2023-05-16T03:55:07;11.10;99.90
11126;DHT22;5617;54.046;10.676;2023-05-16T03:57:15;11.10;99.90
11126;DHT22;5617;54.046;10.676;2023-05-16T03:59:24;11.10;99.90
11126;DHT22;5617;54.046;10.676;2023-05-16T04:01:31;11.10;99.90
11126;DHT22;5617;54.046;10.676;2023-05-16T04:03:39;11.20;99.90
11126;DHT22;5617;54.046;10.676;2023-05-16T04:05:46;11.20;99.90
11126;DHT22;5617;54.046;10.676;2023-05-16T04:07:55;11.20;99.90
11126;DHT22;5617;54.046;10.676;2023-05-16T04:10:03;11.20;99.90
11126;DHT22;5617;54.046;10.676;2023-05-16T04:12:11;11.20;99.90
11126;DHT22;5617;54.046;10.676;2023-05-16T04:14:19;11.20;99.90
11126;DHT22;5617;54.046;10.676;2023-05-16T04:16:28;11.20;99.90
11126;DHT22;5617;54.046;10.676;2023-05-16T04:18:35;11.20;99.90
11126;DHT22;5617;54.046;10.676;2023-05-16T04:20:43;11.10;99.90
11126;DHT22;5617;54.046;10.676;2023-05-16T04:22:52;11.10;99.90
11126;DHT22;5617;54.046;10.676;2023-05-16T04:25:00;11.10;99.90
11126;DHT22;5617;54.046;10.676;2023-05-16T04:27:08;11.20;99.90
11126;DHT22;5617;54.046;10.676;2023-05-16T04:29:15;11.20;99.90
11126;DHT22;5617;54.046;10.676;2023-05-16T04:31:24;11.20;99.90
11126;DHT22;5617;54.046;10.676;2023-05-16T04:33:33;11.20;99.90
11126;DHT22;5617;54.046;10.676;2023-05-16T04:35:41;11.20;99.90
11126;DHT22;5617;54.046;10.676;2023-05-16T04:37:48;11.20;99.90
11126;DHT22;5617;54.046;10.676;2023-05-16T04:39:56;11.20;99.90
11126;DHT22;5617;54.046;10.676;2023-05-16T04:42:05;11.20;99.90
11126;DHT22;5617;54.046;10.676;2023-05-16T04:44:12;11.20;99.90
11126;DHT22;5617;54.046;10.676;2023-05-16T04:46:20;11.20;99.90
11126;DHT22;5617;54.046;10.676;2023-05-16T04:48:28;11.20;99.90
11126;DHT22;5617;54.046;10.676;2023-05-16T04:50:37;11.20;99.90
11126;DHT22;5617;54.046;10.676;2023-05-16T04:52:45;11.20;99.90
11126;DHT22;5617;54.046;10.676;2023-05-16T04:54:52;11.20;99.90
11126;DHT22;5617;54.046;10.676;2023-05-16T04:57:00;11.20;99.90
11126;DHT22;5617;54.046;10.676;2023-05-16T04:59:08;11.20;99.90
11126;DHT22;5617;54.046;10.676;2023-05-16T05:01:15;11.20;99.90
11126;DHT22;5617;54.046;10.676;2023-05-16T05:03:23;11.30;99.90
11126;DHT22;5617;54.046;10.676;2023-05-16T05:05:30;11.30;99.90
11126;DHT22;5617;54.046;10.676;2023-05-16T05:07:40;11.30;99.90
11126;DHT22;5617;54.046;10.676;2023-05-16T05:09:48;11.30;99.90
11126;DHT22;5617;54.046;10.676;2023-05-16T05:11:57;11.30;99.90
11126;DHT22;5617;54.046;10.676;2023-05-16T05:14:04;11.30;99.90
11126;DHT22;5617;54.046;10.676;2023-05-16T05:16:12;11.30;99.90
11126;DHT22;5617;54.046;10.676;2023-05-16T05:18:19;11.20;99.80
11126;DHT22;5617;54.046;10.676;2023-05-16T05:20:27;11.20;99.80
11126;DHT22;5617;54.046;10.676;2023-05-16T05:22:35;11.20;99.80
11126;DHT22;5617;54.046;10.676;2023-05-16T05:24:44;11.30;99.80
11126;DHT22;5617;54.046;10.676;2023-05-16T05:26:52;11.30;99.80
11126;DHT22;5617;54.046;10.676;2023-05-16T05:29:00;11.30;99.70
11126;DHT22;5617;54.046;10.676;2023-05-16T05:31:11;11.40;99.70
11126;DHT22;5617;54.046;10.676;2023-05-16T05:33:19;11.40;99.60
11126;DHT22;5617;54.046;10.676;2023-05-16T05:35:32;11.50;99.60
11126;DHT22;5617;54.046;10.676;2023-05-16T05:37:39;11.50;99.60
11126;DHT22;5617;54.046;10.676;2023-05-16T05:39:48;11.50;99.50
11126;DHT22;5617;54.046;10.676;2023-05-16T05:41:56;11.50;99.40
11126;DHT22;5617;54.046;10.676;2023-05-16T05:44:04;11.50;99.40
11126;DHT22;5617;54.046;10.676;2023-05-16T05:46:12;11.60;99.40
11126;DHT22;5617;54.046;10.676;2023-05-16T05:48:20;11.60;99.40
11126;DHT22;5617;54.046;10.676;2023-05-16T05:50:28;11.70;99.40
11126;DHT22;5617;54.046;10.676;2023-05-16T05:52:37;11.70;99.30
11126;DHT22;5617;54.046;10.676;2023-05-16T05:54:44;11.70;99.20
11126;DHT22;5617;54.046;10.676;2023-05-16T05:56:53;11.70;99.10
11126;DHT22;5617;54.046;10.676;2023-05-16T05:59:01;11.70;99.00
11126;DHT22;5617;54.046;10.676;2023-05-16T06:01:09;11.70;98.70
11126;DHT22;5617;54.046;10.676;2023-05-16T06:03:17;11.70;98.60
11126;DHT22;5617;54.046;10.676;2023-05-16T06:05:26;11.60;98.50
11126;DHT22;5617;54.046;10.676;2023-05-16T06:07:34;11.60;98.20
11126;DHT22;5617;54.046;10.676;2023-05-16T06:09:43;11.60;98.10
11126;DHT22;5617;54.046;10.676;2023-05-16T06:11:51;11.50;98.00
11126;DHT22;5617;54.046;10.676;2023-05-16T06:14:00;11.50;97.70
11126;DHT22;5617;54.046;10.676;2023-05-16T06:16:07;11.50;97.60
11126;DHT22;5617;54.046;10.676;2023-05-16T06:18:15;11.60;97.60
11126;DHT22;5617;54.046;10.676;2023-05-16T06:20:23;11.60;97.40
11126;DHT22;5617;54.046;10.676;2023-05-16T06:22:30;11.60;97.20
11126;DHT22;5617;54.046;10.676;2023-05-16T06:24:38;11.70;97.20
11126;DHT22;5617;54.046;10.676;2023-05-16T06:26:46;11.70;97.10
11126;DHT22;5617;54.046;10.676;2023-05-16T06:28:55;11.60;96.70
11126;DHT22;5617;54.046;10.676;2023-05-16T06:31:04;11.60;96.40
11126;DHT22;5617;54.046;10.676;2023-05-16T06:33:13;11.60;96.30
11126;DHT22;5617;54.046;10.676;2023-05-16T06:35:21;11.60;96.30
11126;DHT22;5617;54.046;10.676;2023-05-16T06:37:28;11.70;96.20
11126;DHT22;5617;54.046;10.676;2023-05-16T06:39:37;11.70;96.10
11126;DHT22;5617;54.046;10.676;2023-05-16T06:41:44;11.80;95.90
11126;DHT22;5617;54.046;10.676;2023-05-16T06:43:52;11.70;95.70
11126;DHT22;5617;54.046;10.676;2023-05-16T06:46:00;11.70;95.50
11126;DHT22;5617;54.046;10.676;2023-05-16T06:48:09;11.90;95.20
11126;DHT22;5617;54.046;10.676;2023-05-16T06:50:17;12.00;95.20
11126;DHT22;5617;54.046;10.676;2023-05-16T06:52:24;12.10;95.10
11126;DHT22;5617;54.046;10.676;2023-05-16T06:54:32;12.20;94.80
11126;DHT22;5617;54.046;10.676;2023-05-16T06:56:40;12.40;94.60
11126;DHT22;5617;54.046;10.676;2023-05-16T06:58:48;12.60;94.40
11126;DHT22;5617;54.046;10.676;2023-05-16T07:00:56;12.90;94.10
11126;DHT22;5617;54.046;10.676;2023-05-16T07:03:04;13.20;94.10
11126;DHT22;5617;54.046;10.676;2023-05-16T07:05:16;13.30;93.90
11126;DHT22;5617;54.046;10.676;2023-05-16T07:07:24;13.40;93.70
11126;DHT22;5617;54.046;10.676;2023-05-16T07:09:32;13.30;93.80
11126;DHT22;5617;54.046;10.676;2023-05-16T07:11:40;13.30;93.40
11126;DHT22;5617;54.046;10.676;2023-05-16T07:13:48;13.20;93.20
11126;DHT22;5617;54.046;10.676;2023-05-16T07:15:55;13.00;92.30
11126;DHT22;5617;54.046;10.676;2023-05-16T07:18:03;12.90;92.30
11126;DHT22;5617;54.046;10.676;2023-05-16T07:20:11;12.80;92.50
11126;DHT22;5617;54.046;10.676;2023-05-16T07:22:21;12.80;92.50
11126;DHT22;5617;54.046;10.676;2023-05-16T07:24:30;12.70;92.30
11126;DHT22;5617;54.046;10.676;2023-05-16T07:26:37;12.70;92.40
11126;DHT22;5617;54.046;10.676;2023-05-16T07:28:45;12.80;92.30
11126;DHT22;5617;54.046;10.676;2023-05-16T07:30:53;12.90;92.30
11126;DHT22;5617;54.046;10.676;2023-05-16T07:33:04;12.90;92.30
11126;DHT22;5617;54.046;10.676;2023-05-16T07:35:11;13.00;92.30
11126;DHT22;5617;54.046;10.676;2023-05-16T07:37:20;13.00;92.20
11126;DHT22;5617;54.046;10.676;2023-05-16T07:39:28;12.90;92.10
11126;DHT22;5617;54.046;10.676;2023-05-16T07:41:36;13.20;92.20
11126;DHT22;5617;54.046;10.676;2023-05-16T07:43:43;13.40;92.10
11126;DHT22;5617;54.046;10.676;2023-05-16T07:45:51;13.60;92.00
11126;DHT22;5617;54.046;10.676;2023-05-16T07:47:59;13.70;91.80
11126;DHT22;5617;54.046;10.676;2023-05-16T07:50:07;13.80;91.70
11126;DHT22;5617;54.046;10.676;2023-05-16T07:52:15;13.70;91.60
11126;DHT22;5617;54.046;10.676;2023-05-16T07:54:25;13.70;91.70
11126;DHT22;5617;54.046;10.676;2023-05-16T07:56:32;13.70;91.50
11126;DHT22;5617;54.046;10.676;2023-05-16T07:58:40;13.60;91.60
11126;DHT22;5617;54.046;10.676;2023-05-16T08:00:48;13.60;91.60
11126;DHT22;5617;54.046;10.676;2023-05-16T08:02:56;13.50;91.40
11126;DHT22;5617;54.046;10.676;2023-05-16T08:05:05;13.40;91.40
11126;DHT22;5617;54.046;10.676;2023-05-16T08:07:13;13.50;91.60
11126;DHT22;5617;54.046;10.676;2023-05-16T08:09:21;13.60;91.50
11126;DHT22;5617;54.046;10.676;2023-05-16T08:11:30;13.80;91.30
11126;DHT22;5617;54.046;10.676;2023-05-16T08:13:37;14.00;91.10
11126;DHT22;5617;54.046;10.676;2023-05-16T08:15:45;14.20;90.80
11126;DHT22;5617;54.046;10.676;2023-05-16T08:17:55;14.40;90.20
11126;DHT22;5617;54.046;10.676;2023-05-16T08:20:04;14.60;89.40
11126;DHT22;5617;54.046;10.676;2023-05-16T08:22:12;14.70;89.60
11126;DHT22;5617;54.046;10.676;2023-05-16T08:24:20;14.70;88.20
11126;DHT22;5617;54.046;10.676;2023-05-16T08:26:29;14.80;88.10
11126;DHT22;5617;54.046;10.676;2023-05-16T08:28:37;15.00;87.30
11126;DHT22;5617;54.046;10.676;2023-05-16T08:30:45;14.80;86.30
11126;DHT22;5617;54.046;10.676;2023-05-16T08:32:53;14.90;85.80
11126;DHT22;5617;54.046;10.676;2023-05-16T08:35:01;14.90;85.60
11126;DHT22;5617;54.046;10.676;2023-05-16T08:37:09;14.80;85.60
11126;DHT22;5617;54.046;10.676;2023-05-16T08:39:17;14.70;85.80
11126;DHT22;5617;54.046;10.676;2023-05-16T08:41:25;14.70;86.20
11126;DHT22;5617;54.046;10.676;2023-05-16T08:43:34;14.60;86.30
11126;DHT22;5617;54.046;10.676;2023-05-16T08:45:42;14.70;86.00
11126;DHT22;5617;54.046;10.676;2023-05-16T08:47:53;14.90;85.80
11126;DHT22;5617;54.046;10.676;2023-05-16T08:50:02;15.30;85.20
11126;DHT22;5617;54.046;10.676;2023-05-16T08:52:11;15.60;84.80
11126;DHT22;5617;54.046;10.676;2023-05-16T08:54:19;15.70;84.10
11126;DHT22;5617;54.046;10.676;2023-05-16T08:56:28;15.80;83.20
11126;DHT22;5617;54.046;10.676;2023-05-16T08:58:38;15.60;82.80
11126;DHT22;5617;54.046;10.676;2023-05-16T09:00:47;15.60;82.50
11126;DHT22;5617;54.046;10.676;2023-05-16T09:02:55;15.70;81.90
11126;DHT22;5617;54.046;10.676;2023-05-16T09:05:03;15.70;81.30
11126;DHT22;5617;54.046;10.676;2023-05-16T09:07:12;15.60;81.60
11126;DHT22;5617;54.046;10.676;2023-05-16T09:09:19;15.40;81.50
11126;DHT22;5617;54.046;10.676;2023-05-16T09:11:27;15.50;81.60
11126;DHT22;5617;54.046;10.676;2023-05-16T09:13:38;15.70;81.40
11126;DHT22;5617;54.046;10.676;2023-05-16T09:16:09;15.90;81.60
11126;DHT22;5617;54.046;10.676;2023-05-16T09:18:20;16.20;80.40
11126;DHT22;5617;54.046;10.676;2023-05-16T09:20:28;16.40;79.70
11126;DHT22;5617;54.046;10.676;2023-05-16T09:22:36;16.50;78.10
11126;DHT22;5617;54.046;10.676;2023-05-16T09:24:44;16.70;76.90
11126;DHT22;5617;54.046;10.676;2023-05-16T09:26:53;16.80;75.50
11126;DHT22;5617;54.046;10.676;2023-05-16T09:29:09;16.70;75.80
11126;DHT22;5617;54.046;10.676;2023-05-16T09:31:21;16.60;76.50
11126;DHT22;5617;54.046;10.676;2023-05-16T09:33:32;16.50;76.00
11126;DHT22;5617;54.046;10.676;2023-05-16T09:35:39;16.30;76.10
11126;DHT22;5617;54.046;10.676;2023-05-16T09:37:52;16.10;76.20
11126;DHT22;5617;54.046;10.676;2023-05-16T09:40:00;16.00;76.20
11126;DHT22;5617;54.046;10.676;2023-05-16T09:42:10;15.70;75.10
11126;DHT22;5617;54.046;10.676;2023-05-16T09:44:20;15.70;73.60
11126;DHT22;5617;54.046;10.676;2023-05-16T09:46:28;15.90;73.30
11126;DHT22;5617;54.046;10.676;2023-05-16T09:48:39;16.10;73.20
11126;DHT22;5617;54.046;10.676;2023-05-16T09:50:50;16.40;73.20
11126;DHT22;5617;54.046;10.676;2023-05-16T09:52:58;16.40;73.10
11126;DHT22;5617;54.046;10.676;2023-05-16T09:55:08;16.30;74.10
11126;DHT22;5617;54.046;10.676;2023-05-16T09:57:17;16.00;75.50
11126;DHT22;5617;54.046;10.676;2023-05-16T09:59:27;15.80;76.50
11126;DHT22;5617;54.046;10.676;2023-05-16T10:01:35;15.60;77.10
11126;DHT22;5617;54.046;10.676;2023-05-16T10:03:43;15.70;77.50
11126;DHT22;5617;54.046;10.676;2023-05-16T10:05:51;16.00;76.50
11126;DHT22;5617;54.046;10.676;2023-05-16T10:08:00;16.00;76.10
11126;DHT22;5617;54.046;10.676;2023-05-16T10:10:10;16.20;75.70
11126;DHT22;5617;54.046;10.676;2023-05-16T10:12:19;16.30;75.30
11126;DHT22;5617;54.046;10.676;2023-05-16T10:14:34;16.50;74.70
11126;DHT22;5617;54.046;10.676;2023-05-16T10:16:43;16.70;74.00
11126;DHT22;5617;54.046;10.676;2023-05-16T10:18:53;16.80;72.20
11126;DHT22;5617;54.046;10.676;2023-05-16T10:21:03;17.10;72.30
11126;DHT22;5617;54.046;10.676;2023-05-16T10:23:16;17.20;72.00
11126;DHT22;5617;54.046;10.676;2023-05-16T10:25:27;17.30;70.80
11126;DHT22;5617;54.046;10.676;2023-05-16T10:27:36;17.30;70.50
11126;DHT22;5617;54.046;10.676;2023-05-16T10:29:46;17.40;70.20
11126;DHT22;5617;54.046;10.676;2023-05-16T10:32:02;17.30;71.20
11126;DHT22;5617;54.046;10.676;2023-05-16T10:34:12;16.90;71.50
11126;DHT22;5617;54.046;10.676;2023-05-16T10:36:20;16.70;72.30
11126;DHT22;5617;54.046;10.676;2023-05-16T10:38:28;16.50;72.30
11126;DHT22;5617;54.046;10.676;2023-05-16T10:40:40;16.30;72.40
11126;DHT22;5617;54.046;10.676;2023-05-16T10:42:54;16.40;72.50
11126;DHT22;5617;54.046;10.676;2023-05-16T10:45:15;16.50;72.50
11126;DHT22;5617;54.046;10.676;2023-05-16T10:47:24;16.60;72.50
11126;DHT22;5617;54.046;10.676;2023-05-16T10:49:32;16.60;72.20
11126;DHT22;5617;54.046;10.676;2023-05-16T10:51:39;16.50;71.90
11126;DHT22;5617;54.046;10.676;2023-05-16T10:53:50;16.70;71.70
11126;DHT22;5617;54.046;10.676;2023-05-16T10:56:06;17.00;71.80
11126;DHT22;5617;54.046;10.676;2023-05-16T10:58:18;17.30;71.80
11126;DHT22;5617;54.046;10.676;2023-05-16T11:00:30;17.30;71.90
11126;DHT22;5617;54.046;10.676;2023-05-16T11:02:40;17.20;71.90
11126;DHT22;5617;54.046;10.676;2023-05-16T11:04:49;17.10;72.10
11126;DHT22;5617;54.046;10.676;2023-05-16T11:06:57;16.90;71.10
11126;DHT22;5617;54.046;10.676;2023-05-16T11:09:06;16.80;69.50
11126;DHT22;5617;54.046;10.676;2023-05-16T11:11:37;16.80;69.00
11126;DHT22;5617;54.046;10.676;2023-05-16T11:13:53;17.00;67.70
11126;DHT22;5617;54.046;10.676;2023-05-16T11:16:27;17.20;67.90
11126;DHT22;5617;54.046;10.676;2023-05-16T11:18:49;17.40;66.40
11126;DHT22;5617;54.046;10.676;2023-05-16T11:21:02;17.30;66.30
11126;DHT22;5617;54.046;10.676;2023-05-16T11:23:21;17.00;65.50
11126;DHT22;5617;54.046;10.676;2023-05-16T11:25:35;16.70;65.00
11126;DHT22;5617;54.046;10.676;2023-05-16T11:27:45;16.30;65.20
11126;DHT22;5617;54.046;10.676;2023-05-16T11:29:54;16.00;66.40
11126;DHT22;5617;54.046;10.676;2023-05-16T11:32:10;15.80;68.30
11126;DHT22;5617;54.046;10.676;2023-05-16T11:34:18;15.80;69.70
11126;DHT22;5617;54.046;10.676;2023-05-16T11:36:28;15.60;70.70
11126;DHT22;5617;54.046;10.676;2023-05-16T11:38:37;15.90;71.50
11126;DHT22;5617;54.046;10.676;2023-05-16T11:40:48;16.30;71.40
11126;DHT22;5617;54.046;10.676;2023-05-16T11:42:59;16.80;71.10
11126;DHT22;5617;54.046;10.676;2023-05-16T11:45:15;17.10;70.90
11126;DHT22;5617;54.046;10.676;2023-05-16T11:47:24;17.30;69.70
11126;DHT22;5617;54.046;10.676;2023-05-16T11:49:33;17.50;69.50
11126;DHT22;5617;54.046;10.676;2023-05-16T11:51:41;17.20;69.90
11126;DHT22;5617;54.046;10.676;2023-05-16T11:53:49;16.70;70.80
11126;DHT22;5617;54.046;10.676;2023-05-16T11:55:58;16.20;71.40
11126;DHT22;5617;54.046;10.676;2023-05-16T11:58:09;16.00;72.60
11126;DHT22;5617;54.046;10.676;2023-05-16T12:00:19;16.10;72.90
11126;DHT22;5617;54.046;10.676;2023-05-16T12:02:29;16.20;73.10
11126;DHT22;5617;54.046;10.676;2023-05-16T12:04:38;16.40;73.60
11126;DHT22;5617;54.046;10.676;2023-05-16T12:06:57;16.70;73.90
11126;DHT22;5617;54.046;10.676;2023-05-16T12:09:10;16.90;74.40
11126;DHT22;5617;54.046;10.676;2023-05-16T12:11:18;16.80;74.90
11126;DHT22;5617;54.046;10.676;2023-05-16T12:13:27;16.50;74.90
11126;DHT22;5617;54.046;10.676;2023-05-16T12:15:35;15.90;74.80
11126;DHT22;5617;54.046;10.676;2023-05-16T12:17:44;15.60;75.30
11126;DHT22;5617;54.046;10.676;2023-05-16T12:19:54;15.60;75.60
11126;DHT22;5617;54.046;10.676;2023-05-16T12:22:01;15.90;75.60
11126;DHT22;5617;54.046;10.676;2023-05-16T12:24:11;16.00;76.00
11126;DHT22;5617;54.046;10.676;2023-05-16T12:26:24;15.90;75.90
11126;DHT22;5617;54.046;10.676;2023-05-16T12:28:32;15.80;75.00
11126;DHT22;5617;54.046;10.676;2023-05-16T12:30:43;16.20;74.50
11126;DHT22;5617;54.046;10.676;2023-05-16T12:32:54;16.30;72.80
11126;DHT22;5617;54.046;10.676;2023-05-16T12:35:04;16.20;71.60
11126;DHT22;5617;54.046;10.676;2023-05-16T12:37:12;16.20;72.00
11126;DHT22;5617;54.046;10.676;2023-05-16T12:39:20;16.00;72.20
11126;DHT22;5617;54.046;10.676;2023-05-16T12:41:29;15.90;73.20
11126;DHT22;5617;54.046;10.676;2023-05-16T12:43:37;15.70;75.20
11126;DHT22;5617;54.046;10.676;2023-05-16T12:45:49;15.50;76.10
11126;DHT22;5617;54.046;10.676;2023-05-16T12:48:03;15.70;76.40
11126;DHT22;5617;54.046;10.676;2023-05-16T12:50:11;16.10;76.70
11126;DHT22;5617;54.046;10.676;2023-05-16T12:52:20;16.10;76.90
11126;DHT22;5617;54.046;10.676;2023-05-16T12:54:28;16.10;77.30
11126;DHT22;5617;54.046;10.676;2023-05-16T12:56:37;16.10;77.60
11126;DHT22;5617;54.046;10.676;2023-05-16T12:58:44;16.30;77.70
11126;DHT22;5617;54.046;10.676;2023-05-16T13:00:52;16.50;77.40
11126;DHT22;5617;54.046;10.676;2023-05-16T13:03:01;16.40;77.30
11126;DHT22;5617;54.046;10.676;2023-05-16T13:05:09;16.40;76.70
11126;DHT22;5617;54.046;10.676;2023-05-16T13:07:17;16.40;76.00
11126;DHT22;5617;54.046;10.676;2023-05-16T13:09:25;16.10;75.50
11126;DHT22;5617;54.046;10.676;2023-05-16T13:11:39;15.70;76.00
11126;DHT22;5617;54.046;10.676;2023-05-16T13:13:53;15.40;76.80
11126;DHT22;5617;54.046;10.676;2023-05-16T13:16:01;15.10;78.30
11126;DHT22;5617;54.046;10.676;2023-05-16T13:18:10;14.70;79.20
11126;DHT22;5617;54.046;10.676;2023-05-16T13:20:18;14.50;80.20
11126;DHT22;5617;54.046;10.676;2023-05-16T13:22:26;14.30;81.00
11126;DHT22;5617;54.046;10.676;2023-05-16T13:24:34;14.10;81.60
11126;DHT22;5617;54.046;10.676;2023-05-16T13:26:42;13.80;81.90
11126;DHT22;5617;54.046;10.676;2023-05-16T13:28:50;13.70;83.00
11126;DHT22;5617;54.046;10.676;2023-05-16T13:30:58;13.50;84.00
11126;DHT22;5617;54.046;10.676;2023-05-16T13:33:06;13.60;85.00
11126;DHT22;5617;54.046;10.676;2023-05-16T13:35:17;13.70;86.00
11126;DHT22;5617;54.046;10.676;2023-05-16T13:37:24;13.70;87.10
11126;DHT22;5617;54.046;10.676;2023-05-16T13:39:32;13.80;88.50